createdAt,value
2018-07-05T00:00:01.288Z,35.00
2018-07-05T00:02:41.423Z,31.93
2018-07-05T00:05:21.682Z,33.30
2018-07-05T00:08:01.740Z,31.30
2018-07-05T00:10:42.176Z,30.70
2018-07-05T00:13:22.555Z,30.43
2018-07-05T00:16:02.812Z,34.87
2018-07-05T00:18:42.984Z,36.90
2018-07-05T00:21:17.228Z,37.23
2018-07-05T00:23:57.399Z,26.50
2018-07-05T00:26:37.534Z,26.10
2018-07-05T00:29:17.871Z,28.17
2018-07-05T00:31:58.078Z,28.10
2018-07-05T00:34:38.251Z,27.03
2018-07-05T00:37:18.424Z,34.17
2018-07-05T00:39:58.629Z,34.30
2018-07-05T00:42:38.759Z,29.37
2018-07-05T00:45:19.053Z,31.27
2018-07-05T00:47:59.252Z,29.87
2018-07-05T00:50:39.715Z,30.07
2018-07-05T00:53:19.874Z,36.97
2018-07-05T00:56:00.335Z,35.37
2018-07-05T00:58:40.679Z,37.50
2018-07-05T01:01:21.066Z,31.93
2018-07-05T01:04:01.280Z,34.97
2018-07-05T01:06:41.803Z,37.90
2018-07-05T01:09:21.935Z,36.00
2018-07-05T01:12:02.239Z,38.73
2018-07-05T01:14:36.466Z,38.20
2018-07-05T01:17:16.696Z,33.87
2018-07-05T01:19:56.931Z,38.37
2018-07-05T01:22:37.195Z,36.30
2018-07-05T01:25:17.408Z,39.07
2018-07-05T01:27:57.599Z,40.63
2018-07-05T01:30:37.739Z,40.23
2018-07-05T01:33:18.319Z,36.07
2018-07-05T01:35:58.623Z,35.30
2018-07-05T01:38:38.919Z,33.10
2018-07-05T01:41:13.118Z,39.23
2018-07-05T01:43:53.462Z,38.13
2018-07-05T01:46:33.637Z,37.93
2018-07-05T01:49:13.896Z,36.00
2018-07-05T01:51:53.995Z,39.97
2018-07-05T01:54:34.251Z,36.30
2018-07-05T01:57:08.405Z,40.73
2018-07-05T01:59:48.363Z,37.57
2018-07-05T02:02:28.640Z,40.53
2018-07-05T02:05:08.731Z,39.27
2018-07-05T02:07:48.858Z,42.03
2018-07-05T02:10:29.020Z,39.63
2018-07-05T02:13:09.155Z,40.53
2018-07-05T02:15:49.504Z,39.60
2018-07-05T02:18:29.667Z,38.20
2018-07-05T02:21:10.016Z,44.00
2018-07-05T02:23:50.222Z,44.13
2018-07-05T02:26:30.526Z,42.37
2018-07-05T02:29:10.699Z,40.77
2018-07-05T02:31:51.006Z,37.10
2018-07-05T02:34:31.156Z,43.23
2018-07-05T02:37:17.200Z,39.77
2018-07-05T02:39:57.449Z,40.07
2018-07-05T02:42:37.634Z,39.43
2018-07-05T02:45:17.974Z,39.90
2018-07-05T02:47:52.339Z,41.77
2018-07-05T02:50:32.301Z,34.87
2018-07-05T02:53:06.420Z,39.10
2018-07-05T02:55:46.455Z,39.10
2018-07-05T02:58:26.667Z,38.87
2018-07-05T03:01:06.861Z,42.07
2018-07-05T03:03:47.133Z,45.37
2018-07-05T03:06:27.416Z,43.83
2018-07-05T03:09:07.552Z,47.93
2018-07-05T03:11:41.934Z,41.80
2018-07-05T03:14:21.992Z,46.63
2018-07-05T03:17:02.238Z,41.00
2018-07-05T03:19:42.605Z,41.87
2018-07-05T03:22:22.814Z,43.47
2018-07-05T03:25:02.994Z,47.03
2018-07-05T03:27:43.315Z,44.80
2018-07-05T03:30:23.480Z,49.90
2018-07-05T03:33:03.648Z,51.23
2018-07-05T03:35:43.787Z,52.40
2018-07-05T03:38:24.163Z,48.73
2018-07-05T03:41:04.303Z,49.53
2018-07-05T03:43:44.573Z,47.33
2018-07-05T05:08:34.615Z,31.30
2018-07-05T05:11:14.891Z,28.60
2018-07-05T05:13:55.094Z,30.33
2018-07-05T05:16:35.168Z,24.90
2018-07-05T05:19:15.269Z,25.37
2018-07-05T05:21:55.611Z,27.57
2018-07-05T05:24:35.767Z,26.07
2018-07-05T05:27:15.908Z,24.70
2018-07-05T05:29:56.224Z,24.50
2018-07-05T05:32:36.432Z,24.23
2018-07-05T05:35:16.647Z,23.07
2018-07-05T05:37:56.810Z,21.67
2018-07-05T05:40:37.080Z,20.70
2018-07-05T05:43:17.411Z,21.73
2018-07-05T05:45:57.587Z,18.90
2018-07-05T05:48:37.919Z,21.27
2018-07-05T05:51:18.112Z,21.10
2018-07-05T05:53:58.246Z,21.23
2018-07-05T05:56:39.593Z,26.37
2018-07-05T05:59:20.036Z,26.43
2018-07-05T06:02:00.371Z,23.83
2018-07-05T06:04:40.588Z,25.23
2018-07-05T06:07:20.745Z,28.30
2018-07-05T06:10:00.913Z,27.13
2018-07-05T06:12:41.092Z,26.63
2018-07-05T06:15:21.319Z,27.07
2018-07-05T06:18:01.718Z,28.90
2018-07-05T06:20:41.929Z,29.57
2018-07-05T06:23:22.043Z,31.07
2018-07-05T06:26:02.486Z,33.90
2018-07-05T06:28:42.697Z,34.47
2018-07-05T06:31:22.929Z,28.80
2018-07-05T06:34:02.976Z,33.63
2018-07-05T06:36:43.299Z,30.57
2018-07-05T06:39:23.592Z,24.27
2018-07-05T06:42:03.820Z,28.40
2018-07-05T06:44:44.175Z,21.87
2018-07-05T06:47:24.313Z,24.73
2018-07-05T06:50:04.543Z,27.60
2018-07-05T06:52:38.759Z,25.30
2018-07-05T06:55:18.776Z,22.97
2018-07-05T06:57:58.951Z,28.57
2018-07-05T07:00:39.375Z,27.37
2018-07-05T07:03:19.556Z,28.93
2018-07-05T07:05:59.890Z,30.63
2018-07-05T07:08:34.127Z,28.73
2018-07-05T07:11:14.143Z,29.10
2018-07-05T07:13:54.392Z,24.20
2018-07-05T07:16:34.586Z,28.93
2018-07-05T07:19:14.934Z,27.93
2018-07-05T07:21:55.069Z,27.47
2018-07-05T07:24:35.231Z,30.00
2018-07-05T07:27:15.518Z,30.27
2018-07-05T07:29:55.584Z,32.17
2018-07-05T07:32:35.855Z,29.70
2018-07-05T07:35:46.591Z,40.03
2018-07-05T07:38:20.807Z,32.20
2018-07-05T07:41:01.027Z,30.63
2018-07-05T07:43:28.937Z,31.13
2018-07-05T07:45:56.823Z,28.40
2018-07-05T07:48:24.737Z,25.17
2018-07-05T07:50:52.888Z,27.97
2018-07-05T07:53:20.788Z,28.67
2018-07-05T07:55:48.687Z,27.57
2018-07-05T07:58:16.635Z,28.63
2018-07-05T08:00:44.857Z,26.60
2018-07-05T08:03:12.763Z,26.33
2018-07-05T08:05:40.684Z,26.27
2018-07-05T08:08:08.577Z,25.80
2018-07-05T08:10:36.505Z,26.87
2018-07-05T08:13:04.398Z,25.30
2018-07-05T08:15:32.368Z,24.50
2018-07-05T08:18:00.257Z,25.53
2018-07-05T08:20:30.346Z,23.20
2018-07-05T08:22:59.187Z,23.70
2018-07-05T08:25:28.781Z,24.53
2018-07-05T08:27:59.263Z,24.07
2018-07-05T08:30:27.356Z,20.43
2018-07-05T08:32:55.403Z,20.03
2018-07-05T08:35:23.308Z,20.40
2018-07-05T08:37:51.244Z,19.50
2018-07-05T08:40:19.136Z,20.57
2018-07-05T08:42:47.245Z,21.23
2018-07-05T08:45:15.663Z,16.53
2018-07-05T08:47:43.496Z,18.97
2018-07-05T08:50:11.627Z,16.73
2018-07-05T08:52:39.531Z,18.43
2018-07-05T08:55:08.374Z,18.47
2018-07-05T08:57:36.283Z,18.40
2018-07-05T09:00:04.202Z,15.30
2018-07-05T09:02:32.094Z,17.30
2018-07-05T09:05:00.070Z,17.43
2018-07-05T09:07:27.983Z,18.53
2018-07-05T09:09:56.662Z,15.80
2018-07-05T09:12:24.464Z,14.37
2018-07-05T09:14:52.364Z,15.03
2018-07-05T09:17:20.321Z,14.83
2018-07-05T09:19:48.205Z,13.60
2018-07-05T09:22:16.091Z,11.00
2018-07-05T09:24:43.987Z,13.70
2018-07-05T09:27:11.904Z,11.33
2018-07-05T09:29:39.791Z,11.13
2018-07-05T09:32:07.713Z,11.23
2018-07-05T09:34:35.600Z,12.07
2018-07-05T09:37:03.544Z,9.13
2018-07-05T09:39:31.423Z,10.40
2018-07-05T09:41:59.343Z,9.97
2018-07-05T09:44:27.231Z,15.20
2018-07-05T09:46:55.143Z,17.03
2018-07-05T09:49:23.020Z,18.30
2018-07-05T09:51:50.923Z,20.32
2018-07-05T09:54:18.818Z,19.17
2018-07-05T09:56:46.723Z,19.93
2018-07-05T09:59:14.633Z,19.53
2018-07-05T10:01:42.535Z,16.23
2018-07-05T10:04:10.438Z,16.48
2018-07-05T10:06:38.333Z,18.55
2018-07-05T10:09:06.300Z,17.33
2018-07-05T10:11:34.755Z,11.22
2018-07-05T10:14:02.672Z,12.50
2018-07-05T10:16:30.620Z,13.28
2018-07-05T10:18:59.243Z,12.03
2018-07-05T10:21:32.395Z,11.80
2018-07-05T10:24:00.827Z,11.12
2018-07-05T10:26:28.752Z,15.98
2018-07-05T10:29:09.068Z,18.73
2018-07-05T10:31:49.238Z,19.93
2018-07-05T10:34:17.143Z,19.57
2018-07-05T10:36:45.037Z,26.87
2018-07-05T10:39:12.927Z,28.27
2018-07-05T10:41:54.028Z,23.40
2018-07-05T10:44:34.060Z,25.37
2018-07-05T10:47:14.280Z,23.07
2018-07-05T10:49:54.590Z,27.73
2018-07-05T10:52:34.642Z,24.80
2018-07-05T10:55:14.972Z,26.37
2018-07-05T10:57:55.161Z,26.03
2018-07-05T11:00:35.359Z,28.00
2018-07-05T11:03:09.598Z,29.00
2018-07-05T11:05:49.650Z,28.43
2018-07-05T11:08:23.824Z,30.70
2018-07-05T11:11:04.086Z,29.40
2018-07-05T11:13:44.441Z,29.40
2018-07-05T11:16:24.636Z,29.53
2018-07-05T11:19:04.721Z,29.35
2018-07-05T11:21:45.008Z,28.60
2018-07-05T11:24:25.292Z,27.17
2018-07-05T11:27:05.471Z,27.42
2018-07-05T11:29:39.762Z,30.33
2018-07-05T11:32:13.854Z,29.80
2018-07-05T11:34:54.039Z,25.90
2018-07-05T11:37:34.418Z,32.15
2018-07-05T11:40:15.055Z,31.93
2018-07-05T11:42:49.216Z,25.93
2018-07-05T11:48:17.845Z,25.60
2018-07-05T11:50:58.008Z,21.35
2018-07-05T11:53:38.179Z,24.25
2018-07-05T11:56:18.380Z,23.27
2018-07-05T11:58:58.730Z,22.22
2018-07-05T12:01:32.887Z,21.25
2018-07-05T12:04:13.000Z,18.77
2018-07-05T12:06:53.083Z,23.65
2018-07-05T12:09:33.440Z,20.95
2018-07-05T12:12:13.659Z,19.70
2018-07-05T12:14:53.919Z,19.97
2018-07-05T12:17:28.075Z,20.50
2018-07-05T12:20:08.283Z,17.67
2018-07-05T12:22:48.496Z,17.77
2018-07-05T12:25:28.644Z,17.27
2018-07-05T12:28:02.992Z,19.37
2018-07-05T12:30:37.635Z,17.97
2018-07-05T12:33:17.764Z,17.93
2018-07-05T12:35:57.967Z,18.30
2018-07-05T12:38:38.225Z,18.30
2018-07-05T12:41:12.394Z,17.10
2018-07-05T12:43:52.480Z,19.07
2018-07-05T12:46:32.608Z,17.57
2018-07-05T12:49:12.951Z,18.13
2018-07-05T12:51:53.096Z,15.10
2018-07-05T12:54:33.179Z,17.87
2018-07-05T12:57:13.337Z,15.53
2018-07-05T12:59:53.505Z,14.73
2018-07-05T13:02:33.782Z,16.03
2018-07-05T13:05:14.067Z,16.30
2018-07-05T13:07:54.383Z,18.90
2018-07-05T13:10:35.093Z,16.10
2018-07-05T13:13:09.213Z,16.20
2018-07-05T13:15:49.422Z,15.50
2018-07-05T13:18:29.693Z,15.83
2018-07-05T13:21:09.903Z,15.97
2018-07-05T13:23:44.030Z,14.97
2018-07-05T13:26:18.295Z,14.17
2018-07-05T13:28:58.395Z,13.80
2018-07-05T13:31:38.724Z,16.50
2018-07-05T13:34:19.055Z,14.27
2018-07-05T13:36:59.214Z,12.70
2018-07-05T13:39:39.508Z,10.80
2018-07-05T13:42:19.600Z,11.10
2018-07-05T13:44:59.880Z,13.73
2018-07-05T13:47:40.045Z,12.23
2018-07-05T13:50:20.163Z,11.65
2018-07-05T13:53:00.795Z,8.70
2018-07-05T13:55:34.962Z,7.20
2018-07-05T13:58:15.010Z,9.10
2018-07-05T14:00:55.323Z,9.08
2018-07-05T14:03:35.522Z,7.40
2018-07-05T14:06:15.670Z,6.35
2018-07-05T14:08:55.988Z,7.03
2018-07-05T14:11:36.255Z,6.50
2018-07-05T14:14:16.539Z,6.58
2018-07-05T14:16:50.784Z,7.30
2018-07-05T14:19:30.995Z,7.10
2018-07-05T14:22:11.095Z,7.37
2018-07-05T14:24:51.369Z,8.97
2018-07-05T14:27:31.563Z,7.80
2018-07-05T14:30:11.843Z,8.00
2018-07-05T14:32:52.017Z,9.00
2018-07-05T14:35:32.299Z,9.00
2018-07-05T14:38:12.369Z,8.47
2018-07-05T14:40:53.521Z,7.50
2018-07-05T14:43:27.931Z,7.67
2018-07-05T14:46:08.139Z,8.17
2018-07-05T14:48:48.359Z,7.80
2018-07-05T14:51:28.372Z,8.60
2018-07-05T14:54:08.611Z,8.40
2018-07-05T14:56:48.708Z,8.43
2018-07-05T14:59:28.880Z,8.80
2018-07-05T15:02:08.951Z,8.67
2018-07-05T15:04:43.239Z,7.90
2018-07-05T15:07:23.473Z,7.90
2018-07-05T15:10:03.628Z,7.93
2018-07-05T15:12:43.848Z,8.17
2018-07-05T15:15:24.221Z,8.33
2018-07-05T15:18:04.471Z,7.73
2018-07-05T15:20:44.610Z,7.40
2018-07-05T15:23:24.804Z,7.30
2018-07-05T15:26:05.245Z,6.87
2018-07-05T15:28:39.531Z,8.13
2018-07-05T15:31:13.799Z,7.50
2018-07-05T15:33:53.936Z,7.43
2018-07-05T15:36:34.212Z,7.27
2018-07-05T15:39:14.391Z,6.67
2018-07-05T15:41:54.701Z,7.33
2018-07-05T15:44:34.908Z,6.67
2018-07-05T15:47:15.061Z,6.03
2018-07-05T15:49:55.255Z,6.60
2018-07-05T15:52:35.511Z,6.23
2018-07-05T15:55:15.580Z,6.20
2018-07-05T15:57:49.683Z,6.33
2018-07-05T16:00:29.628Z,5.93
2018-07-05T16:03:09.908Z,6.57
2018-07-05T16:05:49.984Z,5.83
2018-07-05T16:08:30.405Z,5.60
2018-07-05T16:11:10.564Z,5.07
2018-07-05T16:13:51.176Z,5.10
2018-07-05T16:16:31.520Z,5.67
2018-07-05T16:19:11.820Z,4.93
2018-07-05T16:21:52.091Z,5.23
2018-07-05T16:24:32.157Z,5.70
2018-07-05T16:27:12.384Z,4.87
2018-07-05T16:29:52.723Z,4.63
2018-07-05T16:32:32.908Z,5.70
2018-07-05T16:35:13.159Z,4.53
2018-07-05T16:37:53.313Z,4.67
2018-07-05T16:40:33.455Z,4.87
2018-07-05T16:43:13.675Z,4.90
2018-07-05T16:45:53.815Z,4.33
2018-07-05T16:48:34.087Z,4.27
2018-07-05T16:51:14.358Z,4.60
2018-07-05T16:53:54.504Z,4.70
2018-07-05T16:56:34.723Z,4.70
2018-07-05T16:59:14.907Z,4.17
2018-07-05T17:01:55.313Z,4.10
2018-07-05T17:04:35.483Z,4.17
2018-07-05T17:07:15.653Z,4.00
2018-07-05T17:09:55.939Z,4.40
2018-07-05T17:12:30.066Z,4.20
2018-07-05T17:15:10.215Z,3.87
2018-07-05T17:17:50.400Z,4.07
2018-07-05T17:20:30.674Z,4.10
2018-07-05T17:23:04.824Z,4.50
2018-07-05T17:25:38.928Z,3.93
2018-07-05T17:28:19.155Z,4.33
2018-07-05T17:30:59.292Z,4.07
2018-07-05T17:33:33.873Z,4.30
2018-07-05T17:36:15.590Z,4.50
2018-07-05T17:38:49.664Z,4.47
2018-07-05T17:41:29.867Z,4.53
2018-07-05T17:44:04.039Z,5.00
2018-07-05T17:46:38.343Z,4.77
2018-07-05T17:49:18.420Z,4.50
2018-07-05T17:51:52.542Z,4.40
2018-07-05T17:54:26.726Z,4.83
2018-07-05T17:57:06.873Z,4.30
2018-07-05T17:59:41.307Z,4.37
2018-07-05T18:02:15.350Z,4.73
2018-07-05T18:04:49.516Z,4.43
2018-07-05T18:07:29.746Z,4.70
2018-07-05T18:10:09.872Z,4.57
2018-07-05T18:12:44.042Z,5.00
2018-07-05T18:15:18.260Z,4.87
2018-07-05T18:17:58.296Z,4.67
2018-07-05T18:20:32.683Z,4.30
2018-07-05T18:23:12.855Z,4.37
2018-07-05T18:25:53.072Z,4.70
2018-07-05T18:28:33.428Z,4.70
2018-07-05T18:31:13.711Z,4.47
2018-07-05T18:33:54.351Z,4.80
2018-07-05T18:36:34.419Z,4.43
2018-07-05T18:39:14.567Z,4.07
2018-07-05T18:41:55.241Z,4.27
2018-07-05T18:44:35.319Z,4.87
2018-07-05T18:47:15.842Z,4.30
2018-07-05T18:49:55.877Z,4.60
2018-07-05T18:52:36.011Z,4.30
2018-07-05T18:55:10.561Z,4.27
2018-07-05T18:57:50.645Z,3.80
2018-07-05T19:00:30.861Z,4.13
2018-07-05T19:03:10.971Z,4.30
2018-07-05T19:05:51.356Z,3.93
2018-07-05T19:08:31.658Z,3.63
2018-07-05T19:11:05.721Z,4.47
2018-07-05T19:13:45.917Z,3.60
2018-07-05T19:16:20.244Z,4.07
2018-07-05T19:18:54.711Z,3.90
2018-07-05T19:21:34.899Z,4.13
2018-07-05T19:24:15.099Z,3.87
2018-07-05T20:10:52.080Z,3.80
2018-07-05T20:13:32.392Z,3.60
2018-07-05T20:16:12.687Z,3.83
2018-07-05T20:18:53.033Z,3.47
2018-07-05T20:21:33.236Z,3.43
2018-07-05T20:24:13.488Z,3.57
2018-07-05T20:26:54.415Z,3.57
2018-07-05T20:29:34.764Z,3.50
2018-07-05T20:32:15.064Z,3.13
2018-07-05T20:34:55.704Z,3.90
2018-07-05T20:37:36.189Z,3.83
2018-07-05T20:40:16.588Z,4.50
2018-07-05T20:42:56.759Z,4.53
2018-07-05T20:45:36.987Z,4.10
2018-07-05T20:48:17.292Z,4.33
2018-07-05T20:50:57.521Z,4.57
2018-07-05T20:53:37.995Z,5.07
2018-07-05T20:56:18.201Z,4.77
2018-07-05T20:58:58.545Z,4.67
2018-07-05T21:01:38.629Z,4.40
2018-07-05T21:04:18.895Z,4.47
2018-07-05T21:06:59.074Z,5.40
2018-07-05T21:09:40.211Z,5.00
2018-07-05T21:12:20.447Z,4.90
2018-07-05T21:15:00.644Z,5.30
2018-07-05T21:17:40.833Z,5.33
2018-07-05T21:20:21.246Z,5.27
2018-07-05T21:22:55.720Z,5.53
2018-07-05T21:25:35.888Z,6.17
2018-07-05T21:28:16.001Z,6.10
2018-07-05T21:30:56.299Z,6.03
2018-07-05T21:33:36.631Z,6.57
2018-07-05T21:36:16.695Z,6.37
2018-07-05T21:38:57.092Z,6.60
2018-07-05T21:41:37.191Z,6.43
2018-07-05T21:44:17.543Z,7.07
2018-07-05T21:46:57.884Z,6.60
2018-07-05T21:49:38.145Z,6.27
2018-07-05T21:52:18.307Z,7.03
2018-07-05T21:54:58.527Z,7.47
2018-07-05T21:57:32.646Z,7.37
2018-07-05T22:00:13.057Z,6.70
2018-07-05T22:02:53.233Z,7.33
2018-07-05T22:05:33.515Z,7.00
2018-07-05T22:08:13.643Z,8.07
2018-07-05T22:10:53.871Z,7.27
2018-07-05T22:13:34.128Z,7.77
2018-07-05T22:16:14.300Z,7.57
2018-07-05T22:18:59.843Z,7.40
2018-07-05T22:21:45.410Z,7.70
2018-07-05T22:24:31.129Z,7.00
2018-07-05T22:27:05.631Z,7.80
2018-07-05T22:29:51.179Z,7.67
2018-07-05T22:32:31.311Z,7.27
2018-07-05T22:35:11.569Z,8.40
2018-07-05T22:37:51.914Z,7.83
2018-07-05T22:40:32.027Z,7.40
2018-07-05T22:43:12.180Z,8.17
2018-07-05T22:45:52.300Z,7.70
2018-07-05T22:48:32.596Z,7.50
2018-07-05T22:51:12.736Z,8.17
2018-07-05T22:53:53.032Z,8.40
2018-07-05T22:56:33.359Z,9.10
2018-07-05T22:59:13.572Z,9.37
2018-07-05T23:01:53.684Z,8.07
2018-07-05T23:04:33.748Z,8.10
2018-07-05T23:07:13.847Z,7.73
2018-07-05T23:09:53.944Z,8.50
2018-07-05T23:12:34.279Z,8.50
2018-07-05T23:15:14.460Z,8.50
2018-07-05T23:17:54.673Z,8.20
2018-07-05T23:20:34.862Z,7.90
2018-07-05T23:23:15.112Z,7.03
2018-07-05T23:25:55.355Z,7.23
2018-07-05T23:28:35.627Z,7.70
2018-07-05T23:31:15.869Z,7.40
2018-07-05T23:33:56.028Z,8.10
2018-07-05T23:36:36.031Z,8.57
2018-07-05T23:39:16.238Z,7.60
2018-07-05T23:41:56.612Z,8.23
2018-07-05T23:44:36.763Z,8.30
2018-07-05T23:47:17.008Z,7.73
2018-07-05T23:49:57.318Z,8.17
2018-07-05T23:52:37.527Z,8.23
2018-07-05T23:55:17.862Z,8.23
2018-07-05T23:57:58.260Z,9.00
